STS weather

Charles M. Schulz Sonoma County Airport
Santa Rosa, California, United States

Public forecast

Using degrees Fahrenheit for public forecast. Weather courtesy of forecast.io.

Current aviation weather report (METAR) for Charles M. Schulz Sonoma County Airport

Retrieved 2019/10/16 05:53 UTC (1 hour ago):

KSTS 160553Z AUTO 00000KT 9SM CLR 07/06 A3003 RMK AO2 SLP165 T00670061 10244 20067 51000

Aviation forecast (TAF) for Charles M. Schulz Sonoma County Airport

Retrieved 2019/10/16 06:36 UTC (24 minutes ago):

TAF KSTS 160533Z 1606/1706 VRB03KT P6SM SKC FM161000 VRB03KT P6SM SCT005 FM161200 VRB03KT 2SM BR BKN003 FM161700 VRB03KT P6SM BKN200 FM162000 19008KT P6SM SCT080 BKN150 FM170400 15004KT P6SM SCT015 BKN050